createdAt,value
2023-04-11T00:01:34.736Z,101022.75
2023-04-11T00:04:05.960Z,101031.91
2023-04-11T00:06:36.506Z,101027.75
2023-04-11T00:09:06.972Z,101030.25
2023-04-11T00:11:37.056Z,101031.31
2023-04-11T00:14:10.589Z,101034.44
2023-04-11T00:16:42.910Z,101037.34
2023-04-11T00:19:12.999Z,101035.88
2023-04-11T00:21:43.072Z,101029.00
2023-04-11T00:24:13.606Z,101041.06
2023-04-11T00:26:43.692Z,101036.69
2023-04-11T00:29:36.907Z,101037.09
2023-04-11T00:32:07.234Z,101045.63
2023-04-11T00:34:37.417Z,101043.97
2023-04-11T00:37:07.853Z,101043.97
2023-04-11T00:39:39.797Z,101051.03
2023-04-11T00:42:11.305Z,101069.53
2023-04-11T00:44:42.170Z,101069.09
2023-04-11T00:47:12.715Z,101067.03
2023-04-11T00:49:43.098Z,101070.38
2023-04-11T00:52:14.248Z,101065.59
2023-04-11T00:54:44.561Z,101066.19
2023-04-11T00:57:15.121Z,101064.09
2023-04-11T00:59:46.397Z,101071.84
2023-04-11T01:02:16.639Z,101072.47
2023-04-11T01:04:47.126Z,101075.78
2023-04-11T01:07:18.085Z,101063.91
2023-04-11T01:09:49.128Z,101078.06
2023-04-11T01:12:19.626Z,101077.03
2023-04-11T01:14:49.835Z,101077.66
2023-04-11T01:17:23.154Z,101080.94
2023-04-11T01:19:53.896Z,101088.88
2023-04-11T01:22:25.240Z,101087.63
2023-04-11T01:24:55.466Z,101089.28
2023-04-11T01:27:25.646Z,101089.91
2023-04-11T01:29:55.779Z,101094.25
2023-04-11T01:32:28.284Z,101086.75
2023-04-11T01:34:59.583Z,101085.50
2023-04-11T01:37:35.376Z,101098.84
2023-04-11T01:40:06.852Z,101089.47
2023-04-11T01:42:37.865Z,101090.88
2023-04-11T01:45:08.523Z,101090.69
2023-04-11T01:47:38.779Z,101086.72
2023-04-11T01:50:09.738Z,101095.47
2023-04-11T01:52:39.882Z,101013.34
2023-04-11T01:55:21.953Z,101090.44
2023-04-11T01:57:52.182Z,101084.59
2023-04-11T02:03:17.903Z,101086.69
2023-04-11T02:06:17.593Z,101084.56
2023-04-11T02:08:47.870Z,101087.91
2023-04-11T02:11:36.809Z,101086.69
2023-04-11T02:14:07.964Z,101085.41
2023-04-11T02:16:51.421Z,101084.97
2023-04-11T02:19:22.682Z,101088.31
2023-04-11T02:21:54.582Z,101085.16
2023-04-11T02:24:24.715Z,101093.94
2023-04-11T02:26:54.830Z,101095.38
2023-04-11T02:29:24.981Z,101087.00
2023-04-11T02:31:55.301Z,101086.56
2023-04-11T02:34:25.717Z,101095.31
2023-04-11T02:36:56.179Z,101094.88
2023-04-11T02:39:26.895Z,101087.38
2023-04-11T02:41:58.775Z,101090.72
2023-04-11T02:44:31.080Z,101086.72
2023-04-11T02:47:03.382Z,101077.31
2023-04-11T02:49:33.801Z,101087.75
2023-04-11T02:52:04.539Z,101094.38
2023-04-11T02:54:34.808Z,101096.03
2023-04-11T02:57:05.919Z,101098.31
2023-04-11T02:59:36.115Z,101097.91
2023-04-11T03:02:06.569Z,101096.84
2023-04-11T03:04:36.908Z,101089.91
2023-04-11T03:07:16.228Z,101089.72
2023-04-11T03:09:46.516Z,101081.38
2023-04-11T03:12:17.534Z,101085.31
2023-04-11T03:14:55.757Z,101070.72
2023-04-11T03:17:26.009Z,101072.97
2023-04-11T03:19:56.511Z,101066.53
2023-04-11T03:22:27.399Z,101074.22
2023-04-11T03:24:57.916Z,101058.56
2023-04-11T03:27:28.888Z,101058.94
2023-04-11T03:30:02.962Z,101054.97
2023-04-11T03:32:45.558Z,101042.03
2023-04-11T03:35:16.455Z,101047.00
2023-04-11T03:37:49.759Z,101038.63
2023-04-11T03:40:20.280Z,101049.03
2023-04-11T03:43:04.877Z,101043.16
2023-04-11T03:45:37.999Z,101046.50
2023-04-11T03:48:14.080Z,101042.50
2023-04-11T03:50:55.451Z,101025.78
2023-04-11T03:53:31.974Z,101020.97
2023-04-11T03:56:08.669Z,101027.59
2023-04-11T03:58:41.164Z,101018.19
2023-04-11T04:01:11.292Z,101014.19
2023-04-11T04:03:42.359Z,101013.78
2023-04-11T04:06:16.291Z,101002.94
2023-04-11T04:08:49.590Z,101006.88
2023-04-11T04:11:21.921Z,100997.66
2023-04-11T04:13:53.495Z,100999.91
2023-04-11T04:16:24.292Z,100996.16
2023-04-11T04:18:59.407Z,100994.03
2023-04-11T04:21:34.129Z,100990.28
2023-04-11T04:24:06.638Z,100978.38
2023-04-11T04:27:05.614Z,100968.94
2023-04-11T04:29:49.697Z,100973.91
2023-04-11T04:32:30.157Z,100972.03
2023-04-11T04:35:08.001Z,100960.13
2023-04-11T04:37:46.877Z,100970.28
2023-04-11T04:40:33.071Z,100959.22
2023-04-11T04:43:10.496Z,100961.69
2023-04-11T04:46:03.920Z,100953.34
2023-04-11T04:48:42.241Z,100950.41
2023-04-11T04:51:12.319Z,100949.09
2023-04-11T04:53:43.207Z,100945.34
2023-04-11T04:56:14.427Z,100941.56
2023-04-11T04:58:48.816Z,100950.31
2023-04-11T05:01:29.060Z,100930.25
2023-04-11T05:04:07.710Z,100926.50
2023-04-11T05:07:00.447Z,100924.34
2023-04-11T05:09:32.252Z,100918.94
2023-04-11T05:12:12.665Z,100923.91
2023-04-11T05:14:44.119Z,100917.44
2023-04-11T05:17:15.066Z,100904.66
2023-04-11T05:19:48.038Z,100908.81
2023-04-11T05:22:19.071Z,100897.97
2023-04-11T05:24:53.358Z,100890.41
2023-04-11T05:27:23.488Z,100885.56
2023-04-11T05:29:55.699Z,100883.72
2023-04-11T05:32:25.973Z,100869.91
2023-04-11T05:34:59.394Z,100870.50
2023-04-11T05:37:38.821Z,100827.91
2023-04-11T05:40:10.342Z,100859.19
2023-04-11T05:42:41.048Z,100852.69
2023-04-11T05:45:11.959Z,100847.84
2023-04-11T05:47:42.409Z,100841.34
2023-04-11T05:50:13.104Z,100827.56
2023-04-11T05:52:43.131Z,100825.44
2023-04-11T05:55:13.537Z,100826.00
2023-04-11T05:57:43.630Z,100816.81
2023-04-11T06:00:15.692Z,100817.66
2023-04-11T06:02:46.116Z,100802.78
2023-04-11T06:05:19.118Z,100798.16
2023-04-11T06:07:49.236Z,100797.69
2023-04-11T06:10:19.424Z,100790.16
2023-04-11T06:12:49.668Z,100781.78
2023-04-11T06:15:19.776Z,100782.59
2023-04-11T06:17:49.976Z,100778.59
2023-04-11T06:20:21.989Z,100774.78
2023-04-11T06:22:54.891Z,100765.34
2023-04-11T06:25:26.215Z,100761.56
2023-04-11T06:27:56.264Z,100734.06
2023-04-11T06:30:26.406Z,100754.81
2023-04-11T06:32:58.081Z,100716.22
2023-04-11T06:35:28.479Z,100737.81
2023-04-11T06:37:58.497Z,100741.13
2023-04-11T06:40:28.606Z,100727.56
2023-04-11T06:43:01.540Z,100724.34
2023-04-11T06:45:31.652Z,100716.22
2023-04-11T06:48:01.924Z,100716.78
2023-04-11T06:50:32.226Z,100710.84
2023-04-11T06:53:02.467Z,100698.97
2023-04-11T06:55:32.737Z,100694.13
2023-04-11T06:58:03.098Z,100684.91
2023-04-11T07:00:33.741Z,100698.84
2023-04-11T07:03:09.337Z,100687.13
2023-04-11T07:05:39.840Z,100685.03
2023-04-11T07:08:10.094Z,100676.59
2023-04-11T07:10:40.256Z,100679.09
2023-04-11T07:13:10.324Z,100671.53
2023-04-11T07:15:40.436Z,100660.66
2023-04-11T07:18:10.674Z,100662.91
2023-04-11T07:20:41.070Z,100650.94
2023-04-11T07:23:11.200Z,100654.25
2023-04-11T07:25:41.470Z,100646.69
2023-04-11T07:28:11.874Z,100639.09
2023-04-11T07:30:42.689Z,100636.97
2023-04-11T07:33:13.024Z,100637.78
2023-04-11T07:35:43.228Z,100634.84
2023-04-11T07:38:13.955Z,100625.63
2023-04-11T07:40:44.056Z,100625.63
2023-04-11T07:43:14.246Z,100626.22
2023-04-11T07:45:45.726Z,100616.41
2023-04-11T07:48:16.017Z,100618.06
2023-04-11T07:50:46.451Z,100614.84
2023-04-11T07:53:17.024Z,100611.03
2023-04-11T07:55:47.798Z,100604.56
2023-04-11T07:58:18.023Z,100603.75
2023-04-11T08:00:49.073Z,100600.75
2023-04-11T08:03:19.391Z,100605.72
2023-04-11T08:05:49.726Z,100593.19
2023-04-11T08:08:20.075Z,100590.22
2023-04-11T08:10:52.024Z,100601.09
2023-04-11T08:13:22.685Z,100595.41
2023-04-11T08:15:53.224Z,100588.66
2023-04-11T08:18:26.019Z,100582.97
2023-04-11T08:20:56.238Z,100580.03
2023-04-11T08:23:26.588Z,100585.19
2023-04-11T08:25:57.253Z,100582.00
2023-04-11T08:28:27.416Z,100580.72
2023-04-11T08:30:59.727Z,100580.72
2023-04-11T08:33:29.896Z,100573.94
2023-04-11T08:36:00.071Z,100579.38
2023-04-11T08:38:30.177Z,100573.94
2023-04-11T08:41:00.272Z,100573.94
2023-04-11T08:43:30.891Z,100569.34
2023-04-11T08:46:03.961Z,100567.19
2023-04-11T08:48:34.492Z,100566.38
2023-04-11T08:51:04.628Z,100563.41
2023-04-11T08:53:37.677Z,100567.53
2023-04-11T08:56:07.895Z,100563.75
2023-04-11T08:58:37.953Z,100565.38
2023-04-11T09:01:26.201Z,100567.06
2023-04-11T09:03:57.097Z,100558.63
2023-04-11T09:06:28.543Z,100566.56
2023-04-11T09:09:01.878Z,100569.84
2023-04-11T09:11:32.320Z,100569.84
2023-04-11T09:14:09.247Z,100569.84
2023-04-11T09:16:39.411Z,100576.94
2023-04-11T09:19:24.681Z,100587.00
2023-04-11T09:21:55.572Z,100589.13
2023-04-11T09:24:27.759Z,100582.31
2023-04-11T09:27:18.018Z,100592.50
2023-04-11T09:29:49.487Z,100596.19
2023-04-11T09:32:34.714Z,100585.22
2023-04-11T09:35:22.052Z,100587.34
2023-04-11T09:37:54.232Z,100584.56
2023-04-11T09:40:25.792Z,100598.38
2023-04-11T09:43:03.813Z,100589.66
2023-04-11T09:45:40.908Z,100591.53
2023-04-11T09:48:14.905Z,100592.38
2023-04-11T09:50:45.167Z,100598.06
2023-04-11T09:53:15.859Z,100594.75
2023-04-11T09:55:46.642Z,100591.81
2023-04-11T09:58:16.850Z,100594.75
2023-04-11T10:00:49.178Z,100604.53
2023-04-11T10:03:21.703Z,100607.25
2023-04-11T10:05:55.299Z,100600.44
2023-04-11T10:08:34.150Z,100597.72
2023-04-11T10:11:08.717Z,100612.13
2023-04-11T10:13:45.795Z,100610.47
2023-04-11T10:16:17.056Z,100608.81
2023-04-11T10:18:49.897Z,100616.75
2023-04-11T10:21:32.277Z,100606.44
2023-04-11T10:24:24.248Z,100587.91
2023-04-11T10:26:59.129Z,100628.75
2023-04-11T10:29:35.400Z,100621.69
2023-04-11T10:32:18.007Z,100627.34
2023-04-11T10:34:54.697Z,100626.88
2023-04-11T10:37:34.830Z,100628.53
2023-04-11T10:40:13.881Z,100624.16
2023-04-11T10:42:44.806Z,100630.06
2023-04-11T10:45:28.027Z,100630.66
2023-04-11T10:47:58.273Z,100632.50
2023-04-11T10:50:28.909Z,100636.16
2023-04-11T10:53:22.199Z,100643.09
2023-04-11T10:55:52.712Z,100645.91
2023-04-11T10:58:23.639Z,100650.78
2023-04-11T11:01:01.614Z,100655.47
2023-04-11T11:03:35.677Z,100661.25
2023-04-11T11:06:07.697Z,100656.16
2023-04-11T11:08:39.569Z,100658.06
2023-04-11T11:11:10.679Z,100670.56
2023-04-11T11:13:55.064Z,100667.03
2023-04-11T11:16:26.842Z,100674.09
2023-04-11T11:18:58.059Z,100682.03
2023-04-11T11:21:29.742Z,100676.59
2023-04-11T11:24:03.709Z,100684.16
2023-04-11T11:26:52.192Z,100680.38
2023-04-11T11:29:41.296Z,100680.38
2023-04-11T11:32:40.316Z,100678.72
2023-04-11T11:36:43.174Z,100684.16
2023-04-11T11:40:19.737Z,100616.75
2023-04-11T11:43:38.752Z,100692.00
2023-04-11T11:47:02.280Z,100700.97
2023-04-11T11:50:23.544Z,100704.78
2023-04-11T11:53:16.202Z,100720.09
2023-04-11T11:55:46.349Z,100718.44
2023-04-11T11:58:16.998Z,100720.81
2023-04-11T12:00:54.447Z,100721.63
2023-04-11T12:03:39.548Z,100726.13
2023-04-11T12:06:11.146Z,100734.41
2023-04-11T12:08:46.356Z,100734.47
2023-04-11T12:11:18.242Z,100737.72
2023-04-11T12:13:53.732Z,100745.34
2023-04-11T12:16:54.643Z,100762.94
2023-04-11T12:19:25.409Z,100758.81
2023-04-11T12:21:55.766Z,100754.78
2023-04-11T12:24:25.941Z,100754.47
2023-04-11T12:27:06.302Z,100748.28
2023-04-11T12:29:37.730Z,100750.53
2023-04-11T12:32:08.184Z,100755.19
2023-04-11T12:34:38.324Z,100769.41
2023-04-11T12:37:08.455Z,100777.00
2023-04-11T12:39:40.133Z,100782.88
2023-04-11T12:42:11.717Z,100788.13
2023-04-11T12:44:42.729Z,100785.84
2023-04-11T12:47:13.477Z,100787.31
2023-04-11T12:49:45.658Z,100788.56
2023-04-11T12:52:15.913Z,100800.44
2023-04-11T12:54:46.856Z,100808.09
2023-04-11T12:57:17.270Z,100810.84
2023-04-11T12:59:52.778Z,100817.16
2023-04-11T13:02:23.512Z,100827.16
2023-04-11T13:04:57.345Z,100832.63
2023-04-11T13:07:27.719Z,100840.97
2023-04-11T13:09:58.322Z,100841.41
2023-04-11T13:12:32.127Z,100842.69
2023-04-11T13:15:04.327Z,100845.41
2023-04-11T13:17:36.599Z,100839.19
2023-04-11T13:20:11.717Z,100842.72
2023-04-11T13:22:46.376Z,100848.56
2023-04-11T13:25:17.497Z,100846.91
2023-04-11T13:27:49.366Z,100856.50
2023-04-11T13:30:23.942Z,100855.47
2023-04-11T13:32:55.951Z,100858.63
2023-04-11T13:35:27.324Z,100859.88
2023-04-11T13:37:58.094Z,100875.06
2023-04-11T13:40:34.382Z,100868.66
2023-04-11T13:43:06.909Z,100874.50
2023-04-11T13:45:38.671Z,100878.25
2023-04-11T13:48:09.887Z,100872.84
2023-04-11T13:50:42.182Z,100877.41
2023-04-11T13:53:17.020Z,100873.44
2023-04-11T13:55:52.892Z,100873.25
2023-04-11T13:58:28.318Z,100878.66
2023-04-11T14:01:00.981Z,100879.72
2023-04-11T14:03:39.130Z,100886.19
2023-04-11T14:06:11.210Z,100887.03
2023-04-11T14:08:42.368Z,100885.78
2023-04-11T14:11:13.130Z,100888.53
2023-04-11T14:13:46.509Z,100890.22
2023-04-11T14:16:17.201Z,100885.22
2023-04-11T14:18:50.968Z,100885.03
2023-04-11T14:21:23.042Z,100892.97
2023-04-11T14:23:53.688Z,100883.00
2023-04-11T14:26:24.293Z,100878.03
2023-04-11T14:28:55.511Z,100851.66
2023-04-11T14:31:25.976Z,100873.88
2023-04-11T14:33:58.812Z,100873.47
2023-04-11T14:36:29.783Z,100876.38
2023-04-11T14:39:18.359Z,100887.38
2023-04-11T14:41:49.672Z,100895.09
2023-04-11T14:44:20.331Z,100894.66
2023-04-11T14:46:51.790Z,100884.69
2023-04-11T14:49:22.708Z,100885.09
2023-04-11T14:51:53.726Z,100897.19
2023-04-11T14:54:25.685Z,100898.41
2023-04-11T14:56:56.694Z,100899.44
2023-04-11T14:59:29.238Z,100906.50
2023-04-11T15:02:02.538Z,100911.72
2023-04-11T15:04:34.950Z,100911.72
2023-04-11T15:07:08.401Z,100910.69
2023-04-11T15:09:41.502Z,100911.28
2023-04-11T15:12:12.165Z,100901.34
2023-04-11T15:14:43.015Z,100906.75
2023-04-11T15:17:14.811Z,100914.22
2023-04-11T15:19:45.259Z,100877.25
2023-04-11T15:22:33.790Z,100911.91
2023-04-11T15:25:04.034Z,100923.97
2023-04-11T15:27:34.698Z,100926.91
2023-04-11T15:30:05.369Z,100933.31
2023-04-11T15:32:35.573Z,100865.19
2023-04-11T15:35:08.818Z,100932.09
2023-04-11T15:37:39.022Z,100928.78
2023-04-11T15:40:10.984Z,100930.44
2023-04-11T15:42:41.479Z,100925.84
2023-04-11T15:45:12.081Z,100925.84
2023-04-11T15:47:42.309Z,100917.56
2023-04-11T15:50:13.391Z,100921.28
2023-04-11T15:52:44.197Z,100916.31
2023-04-11T15:55:16.488Z,100914.66
2023-04-11T15:57:46.925Z,100918.38
2023-04-11T16:00:17.762Z,100920.50
2023-04-11T16:02:48.557Z,100919.03
2023-04-11T16:05:22.373Z,100923.38
2023-04-11T16:07:55.048Z,100911.75
2023-04-11T16:10:25.303Z,100910.09
2023-04-11T16:12:55.523Z,100912.59
2023-04-11T16:15:25.778Z,100901.78
2023-04-11T16:17:56.024Z,100898.06
2023-04-11T16:20:28.961Z,100894.91
2023-04-11T16:22:59.171Z,100889.50
2023-04-11T16:25:29.413Z,100892.63
2023-04-11T16:27:59.766Z,100887.84
2023-04-11T16:30:29.974Z,100888.91
2023-04-11T16:33:00.209Z,100889.31
2023-04-11T16:35:30.504Z,100884.75
2023-04-11T16:38:00.725Z,100876.22
2023-04-11T16:40:33.098Z,100870.22
2023-04-11T16:43:03.354Z,100878.91
2023-04-11T16:45:34.506Z,100875.63
2023-04-11T16:48:05.213Z,100873.91
2023-04-11T16:50:35.815Z,100878.47
2023-04-11T16:53:06.439Z,100876.00
2023-04-11T16:55:36.647Z,100877.03
2023-04-11T16:58:11.745Z,100876.00
2023-04-11T17:00:41.889Z,100875.56
2023-04-11T17:03:12.307Z,100863.13
2023-04-11T17:05:43.095Z,100864.16
2023-04-11T17:08:13.902Z,100863.94
2023-04-11T17:10:44.332Z,100853.34
2023-04-11T17:13:16.116Z,100858.75
2023-04-11T17:15:47.528Z,100842.75
2023-04-11T17:18:17.680Z,100835.06
2023-04-11T17:20:48.021Z,100833.41
2023-04-11T17:23:23.954Z,100836.53
2023-04-11T17:25:59.796Z,100829.47
2023-04-11T17:28:30.184Z,100834.44
2023-04-11T17:31:01.437Z,100825.75
2023-04-11T17:33:31.664Z,100823.03
2023-04-11T17:36:02.045Z,100811.59
2023-04-11T17:38:32.098Z,100812.03
2023-04-11T17:41:13.464Z,100813.91
2023-04-11T17:43:50.764Z,100814.50
2023-04-11T17:46:21.773Z,100809.31
2023-04-11T17:48:52.211Z,100809.13
2023-04-11T17:51:22.649Z,100802.03
2023-04-11T17:53:53.544Z,100802.47
2023-04-11T17:56:23.624Z,100793.34
2023-04-11T17:58:54.427Z,100788.97
2023-04-11T18:01:26.110Z,100786.25
2023-04-11T18:03:56.477Z,100778.59
2023-04-11T18:06:29.448Z,100781.69
2023-04-11T18:08:59.748Z,100772.97
2023-04-11T18:11:29.799Z,100775.66
2023-04-11T18:13:59.959Z,100772.97
2023-04-11T18:16:30.473Z,100770.69
2023-04-11T18:19:00.780Z,100776.09
2023-04-11T18:21:31.096Z,100770.69
2023-04-11T18:24:01.150Z,100760.53
2023-04-11T18:26:32.822Z,100761.38
2023-04-11T18:29:03.283Z,100760.97
2023-04-11T18:31:36.362Z,100763.03
2023-04-11T18:34:07.201Z,100763.22
2023-04-11T18:36:41.067Z,100767.59
2023-04-11T18:39:20.258Z,100757.63
2023-04-11T18:41:50.729Z,100756.16
2023-04-11T18:44:21.102Z,100751.59
2023-04-11T18:46:53.418Z,100752.22
2023-04-11T18:49:25.606Z,100751.81
2023-04-11T18:51:55.634Z,100747.66
2023-04-11T18:54:25.721Z,100744.13
2023-04-11T18:56:56.702Z,100748.91
2023-04-11T18:59:29.645Z,100740.16
2023-04-11T19:02:00.502Z,100729.38
2023-04-11T19:04:30.918Z,100734.34
2023-04-11T19:07:01.142Z,100718.97
2023-04-11T19:09:31.588Z,100714.00
2023-04-11T19:12:01.791Z,100714.00
2023-04-11T19:14:32.279Z,100721.47
2023-04-11T19:17:03.027Z,100716.06
2023-04-11T19:19:33.445Z,100707.97
2023-04-11T19:22:03.501Z,100703.63
2023-04-11T19:24:33.738Z,100708.63
2023-04-11T19:27:03.838Z,100711.13
2023-04-11T19:29:34.641Z,100714.03
2023-04-11T19:32:08.446Z,100714.81
2023-04-11T19:34:38.647Z,100704.88
2023-04-11T19:37:09.673Z,100704.88
2023-04-11T19:39:40.406Z,100696.13
2023-04-11T19:42:11.599Z,100705.28
2023-04-11T19:44:41.599Z,100700.94
2023-04-11T19:50:01.791Z,100700.72
2023-04-11T19:52:32.513Z,100706.53
2023-04-11T19:55:02.550Z,100701.56
2023-04-11T19:57:33.038Z,100707.38
2023-04-11T20:00:03.175Z,100704.66
2023-04-11T20:02:34.950Z,100702.34
2023-04-11T20:05:07.235Z,100705.06
2023-04-11T20:07:37.848Z,100699.47
2023-04-11T20:10:09.557Z,100700.28
2023-04-11T20:12:39.595Z,100697.78
2023-04-11T20:15:10.163Z,100701.53
2023-04-11T20:17:40.419Z,100698.44
2023-04-11T20:20:12.640Z,100704.88
2023-04-11T20:22:42.760Z,100705.88
2023-04-11T20:25:15.657Z,100700.72
2023-04-11T20:27:45.740Z,100707.13
2023-04-11T20:30:17.899Z,100707.34
2023-04-11T20:32:51.470Z,100711.06
2023-04-11T20:35:21.849Z,100705.88
2023-04-11T20:37:51.965Z,100704.84
2023-04-11T20:40:31.446Z,100702.38
2023-04-11T20:43:07.022Z,100704.44
2023-04-11T20:45:37.747Z,100710.88
2023-04-11T20:51:31.041Z,100711.47
2023-04-11T20:54:38.963Z,100715.22
2023-04-11T20:57:09.629Z,100711.88
2023-04-11T20:59:40.673Z,100717.50
2023-04-11T21:02:10.876Z,100718.94
2023-04-11T21:04:48.934Z,100724.13
2023-04-11T21:07:40.612Z,100728.88
2023-04-11T21:10:28.919Z,100741.13
2023-04-11T21:12:59.464Z,100735.91
2023-04-11T21:15:29.597Z,100738.44
2023-04-11T21:17:59.831Z,100734.25
2023-04-11T21:20:30.201Z,100741.50
2023-04-11T21:23:02.164Z,100740.47
2023-04-11T21:25:32.256Z,100728.03
2023-04-11T21:28:02.728Z,100731.56
2023-04-11T21:30:32.880Z,100735.09
2023-04-11T21:33:03.083Z,100735.09
2023-04-11T21:35:33.269Z,100741.31
2023-04-11T21:38:03.398Z,100748.75
2023-04-11T21:40:33.809Z,100746.66
2023-04-11T21:43:03.978Z,100749.59
2023-04-11T21:45:34.366Z,100746.47
2023-04-11T21:48:04.508Z,100738.94
2023-04-11T21:50:34.934Z,100748.72
2023-04-11T21:53:05.093Z,100747.66
2023-04-11T21:55:35.898Z,100754.09
2023-04-11T21:58:07.194Z,100757.00
2023-04-11T22:00:39.458Z,100763.63
2023-04-11T22:03:09.735Z,100756.56
2023-04-11T22:05:43.187Z,100765.06
2023-04-11T22:08:14.234Z,100764.44
2023-04-11T22:10:48.166Z,100766.47
2023-04-11T22:13:19.710Z,100760.72
2023-04-11T22:16:06.232Z,100775.63
2023-04-11T22:18:48.105Z,100773.97
2023-04-11T22:21:22.717Z,100777.66
2023-04-11T22:23:57.635Z,100787.19
2023-04-11T22:26:35.576Z,100784.91
2023-04-11T22:29:06.529Z,100725.25
2023-04-11T22:31:39.664Z,100783.22
2023-04-11T22:34:10.844Z,100790.06
2023-04-11T22:36:40.961Z,100785.72
2023-04-11T22:39:11.808Z,100793.38
2023-04-11T22:41:41.856Z,100788.41
2023-04-11T22:44:12.017Z,100793.16
2023-04-11T22:46:42.336Z,100792.50
2023-04-11T22:49:12.411Z,100794.56
2023-04-11T22:51:42.665Z,100802.03
2023-04-11T22:54:14.760Z,100807.84
2023-04-11T22:56:44.818Z,100804.31
2023-04-11T22:59:14.975Z,100814.66
2023-04-11T23:01:46.133Z,100818.47
2023-04-11T23:04:16.338Z,100818.31
2023-04-11T23:06:50.146Z,100819.44
2023-04-11T23:09:20.572Z,100821.38
2023-04-11T23:11:50.930Z,100835.09
2023-04-11T23:14:22.544Z,100837.19
2023-04-11T23:16:52.697Z,100840.56
2023-04-11T23:19:22.877Z,100843.91
2023-04-11T23:21:53.460Z,100842.69
2023-04-11T23:24:24.105Z,100847.28
2023-04-11T23:26:54.460Z,100855.19
2023-04-11T23:29:24.566Z,100854.34
2023-04-11T23:31:54.831Z,100866.00
2023-04-11T23:34:24.829Z,100861.25
2023-04-11T23:36:54.835Z,100875.56
2023-04-11T23:39:25.258Z,100863.94
2023-04-11T23:41:55.354Z,100867.47
2023-04-11T23:44:25.416Z,100867.06
2023-04-11T23:46:55.494Z,100876.00
2023-04-11T23:49:25.610Z,100866.03
2023-04-11T23:51:55.714Z,100864.81
2023-04-11T23:54:30.019Z,100875.38
2023-04-11T23:57:00.427Z,100884.31
2023-04-11T23:59:30.520Z,100881.81
